createdAt,value
2019-03-26T00:02:19.134Z,3.50
2019-03-26T00:07:23.283Z,3.30
2019-03-26T00:12:28.330Z,3.20
2019-03-26T00:17:33.275Z,3.10
2019-03-26T00:22:37.725Z,3.00
2019-03-26T00:27:43.251Z,2.90
2019-03-26T00:32:48.465Z,2.80
2019-03-26T00:37:52.597Z,2.70
2019-03-26T00:42:58.125Z,2.70
2019-03-26T00:48:02.468Z,2.60
2019-03-26T00:53:08.118Z,2.60
2019-03-26T00:58:13.328Z,2.50
2019-03-26T01:03:17.483Z,2.40
2019-03-26T01:08:22.279Z,2.40
2019-03-26T01:13:26.709Z,2.10
2019-03-26T01:18:31.427Z,2.30
2019-03-26T01:23:35.984Z,2.10
2019-03-26T01:28:44.792Z,2.00
2019-03-26T01:33:49.719Z,2.00
2019-03-26T01:38:53.844Z,2.20
2019-03-26T01:43:59.598Z,2.30
2019-03-26T01:49:04.393Z,2.50
2019-03-26T01:54:11.682Z,2.30
2019-03-26T01:59:20.100Z,2.30
2019-03-26T02:04:25.125Z,2.10
2019-03-26T02:09:30.825Z,2.00
2019-03-26T02:14:35.965Z,2.00
2019-03-26T02:19:40.890Z,1.90
2019-03-26T02:24:45.329Z,1.90
2019-03-26T02:29:51.222Z,2.10
2019-03-26T02:34:56.542Z,2.10
2019-03-26T02:40:00.774Z,2.10
2019-03-26T02:45:05.699Z,2.10
2019-03-26T02:50:10.484Z,2.10
2019-03-26T02:55:16.777Z,2.10
2019-03-26T03:00:21.885Z,2.00
2019-03-26T03:05:34.928Z,2.10
2019-03-26T03:10:34.890Z,2.10
2019-03-26T03:15:39.425Z,2.10
2019-03-26T03:21:03.430Z,2.10
2019-03-26T03:26:07.624Z,3.60
2019-03-26T03:31:12.645Z,2.20
2019-03-26T03:36:18.261Z,2.30
2019-03-26T03:41:22.968Z,2.20
2019-03-26T03:46:29.953Z,2.10
2019-03-26T03:51:37.930Z,2.10
2019-03-26T03:56:44.069Z,2.10
2019-03-26T04:01:48.241Z,2.00
2019-03-26T04:06:52.611Z,2.10
2019-03-26T04:11:57.326Z,2.10
2019-03-26T04:17:01.478Z,2.00
2019-03-26T04:22:06.381Z,1.90
2019-03-26T04:27:11.148Z,1.90
2019-03-26T04:32:15.280Z,2.00
2019-03-26T04:37:20.038Z,2.00
2019-03-26T04:42:24.180Z,2.00
2019-03-26T04:47:29.404Z,2.10
2019-03-26T04:52:34.413Z,2.10
2019-03-26T04:57:39.461Z,2.20
2019-03-26T05:02:44.468Z,2.20
2019-03-26T05:07:50.108Z,2.10
2019-03-26T05:12:54.297Z,2.10
2019-03-26T05:17:59.510Z,2.10
2019-03-26T05:23:03.728Z,1.90
2019-03-26T05:28:07.872Z,2.00
2019-03-26T05:33:12.888Z,2.20
2019-03-26T05:38:16.988Z,2.20
2019-03-26T05:43:21.124Z,2.20
2019-03-26T05:48:26.815Z,2.00
2019-03-26T05:53:31.895Z,2.20
2019-03-26T05:58:36.174Z,2.30
2019-03-26T06:03:40.729Z,2.60
2019-03-26T06:08:45.154Z,2.40
2019-03-26T06:13:49.287Z,2.50
2019-03-26T06:18:54.494Z,2.40
2019-03-26T06:23:59.044Z,2.40
2019-03-26T06:29:03.977Z,2.50
2019-03-26T06:34:10.637Z,2.90
2019-03-26T06:39:14.879Z,2.80
2019-03-26T06:44:19.057Z,2.60
2019-03-26T06:49:24.385Z,2.70
2019-03-26T06:54:29.001Z,2.80
2019-03-26T06:59:33.933Z,3.00
2019-03-26T07:04:45.236Z,3.00
2019-03-26T07:09:49.397Z,3.40
2019-03-26T07:14:54.367Z,3.30
2019-03-26T07:19:58.942Z,3.50
2019-03-26T07:25:06.086Z,4.00
2019-03-26T07:30:15.851Z,4.00
2019-03-26T07:35:21.459Z,4.20
2019-03-26T07:40:25.601Z,4.40
2019-03-26T07:45:49.818Z,4.00
2019-03-26T07:50:55.689Z,4.50
2019-03-26T07:56:00.597Z,4.60
2019-03-26T08:01:05.102Z,4.30
2019-03-26T08:06:10.071Z,3.90
2019-03-26T08:11:14.627Z,4.00
2019-03-26T08:16:19.114Z,3.80
2019-03-26T08:21:23.350Z,3.50
2019-03-26T08:26:27.425Z,3.70
2019-03-26T08:31:35.437Z,4.00
2019-03-26T08:36:40.453Z,4.10
2019-03-26T08:41:44.546Z,4.20
2019-03-26T08:46:48.902Z,4.50
2019-03-26T08:51:54.354Z,4.70
2019-03-26T08:56:58.462Z,4.70
2019-03-26T09:02:03.798Z,4.60
2019-03-26T09:07:10.925Z,4.80
2019-03-26T09:12:15.320Z,5.10
2019-03-26T09:17:20.088Z,5.30
2019-03-26T09:22:24.319Z,5.10
2019-03-26T09:27:28.699Z,5.10
2019-03-26T09:32:35.417Z,5.50
2019-03-26T09:37:39.626Z,5.80
2019-03-26T09:42:43.752Z,5.50
2019-03-26T09:47:48.101Z,5.30
2019-03-26T09:52:52.223Z,5.40
2019-03-26T09:57:57.135Z,5.90
2019-03-26T10:03:01.434Z,6.40
2019-03-26T10:08:05.691Z,6.90
2019-03-26T10:13:10.244Z,7.10
2019-03-26T10:18:16.190Z,7.90
2019-03-26T10:23:20.637Z,7.30
2019-03-26T10:28:26.092Z,6.90
2019-03-26T10:33:30.204Z,6.50
2019-03-26T10:38:34.334Z,6.30
2019-03-26T10:43:40.019Z,6.30
2019-03-26T10:48:44.439Z,6.10
2019-03-26T10:53:48.603Z,6.00
2019-03-26T10:58:52.798Z,6.00
2019-03-26T11:03:57.965Z,6.00
2019-03-26T11:09:03.158Z,6.00
2019-03-26T11:14:08.886Z,6.00
2019-03-26T11:19:13.185Z,6.20
2019-03-26T11:24:17.362Z,6.30
2019-03-26T11:29:23.311Z,6.10
2019-03-26T11:34:27.428Z,5.70
2019-03-26T11:39:33.558Z,6.30
2019-03-26T11:44:37.823Z,6.90
2019-03-26T11:49:42.775Z,7.50
2019-03-26T11:54:47.016Z,7.90
2019-03-26T11:59:51.240Z,7.40
2019-03-26T12:04:56.174Z,7.00
2019-03-26T12:10:00.497Z,6.60
2019-03-26T12:15:05.677Z,6.30
2019-03-26T12:20:09.895Z,5.70
2019-03-26T12:25:15.961Z,5.30
2019-03-26T12:30:33.381Z,5.10
2019-03-26T12:35:38.385Z,5.40
2019-03-26T12:40:44.241Z,5.80
2019-03-26T12:45:49.039Z,5.70
2019-03-26T12:50:53.251Z,5.70
2019-03-26T12:55:59.045Z,5.30
2019-03-26T13:01:04.289Z,5.40
2019-03-26T13:06:10.217Z,5.50
2019-03-26T13:11:16.902Z,6.20
2019-03-26T13:16:20.362Z,6.30
2019-03-26T13:21:24.903Z,6.40
2019-03-26T13:26:29.807Z,7.00
2019-03-26T13:31:34.125Z,6.70
2019-03-26T13:36:38.219Z,6.20
2019-03-26T13:41:43.207Z,5.90
2019-03-26T13:46:48.186Z,5.60
2019-03-26T13:51:52.378Z,5.20
2019-03-26T13:56:57.511Z,5.10
2019-03-26T14:02:01.646Z,4.50
2019-03-26T14:07:07.096Z,4.30
2019-03-26T14:12:12.091Z,4.70
2019-03-26T14:17:16.687Z,5.30
2019-03-26T14:22:20.800Z,6.00
2019-03-26T14:27:24.932Z,6.40
2019-03-26T14:32:29.053Z,6.10
2019-03-26T14:37:33.190Z,5.80
2019-03-26T14:42:39.193Z,5.50
2019-03-26T14:47:44.338Z,5.00
2019-03-26T14:52:48.581Z,4.60
2019-03-26T14:57:53.850Z,4.10
2019-03-26T15:02:57.953Z,3.50
2019-03-26T15:08:02.297Z,3.60
2019-03-26T15:13:06.447Z,3.20
2019-03-26T15:18:12.166Z,3.00
2019-03-26T15:23:16.375Z,3.00
2019-03-26T15:28:20.765Z,3.50
2019-03-26T15:33:25.625Z,3.10
2019-03-26T15:38:30.692Z,3.20
2019-03-26T15:43:35.752Z,3.30
2019-03-26T15:48:40.009Z,5.20
2019-03-26T15:53:44.129Z,3.40
2019-03-26T15:58:48.265Z,3.50
2019-03-26T16:03:52.531Z,3.60
2019-03-26T16:08:57.783Z,3.60
2019-03-26T16:14:01.923Z,3.60
2019-03-26T16:19:06.051Z,3.70
2019-03-26T16:24:10.846Z,3.80
2019-03-26T16:29:15.119Z,3.90
2019-03-26T16:34:20.099Z,4.00
2019-03-26T16:39:24.220Z,4.00
2019-03-26T16:44:28.348Z,4.00
2019-03-26T16:49:34.183Z,3.20
2019-03-26T16:54:38.323Z,2.70
2019-03-26T16:59:44.207Z,2.30
2019-03-26T17:04:48.351Z,2.00
2019-03-26T17:09:52.470Z,1.70
2019-03-26T17:14:56.602Z,2.40
2019-03-26T17:20:01.461Z,1.70
2019-03-26T17:25:06.902Z,1.80
2019-03-26T17:30:11.226Z,1.80
2019-03-26T17:35:15.407Z,1.80
2019-03-26T17:40:20.948Z,1.80
2019-03-26T17:45:25.195Z,1.80
2019-03-26T17:50:29.499Z,1.90
2019-03-26T17:55:34.493Z,1.80
2019-03-26T18:00:42.777Z,1.90
2019-03-26T18:05:46.996Z,2.00
2019-03-26T18:20:59.524Z,1.70
2019-03-26T18:31:10.296Z,1.70
2019-03-26T18:36:14.417Z,1.70
2019-03-26T18:41:19.058Z,1.70
2019-03-26T18:46:23.247Z,1.70
2019-03-26T18:51:28.744Z,1.70
2019-03-26T18:56:33.141Z,1.70
2019-03-26T19:01:38.539Z,1.70
2019-03-26T19:11:47.714Z,1.70
2019-03-26T19:27:04.241Z,1.40
2019-03-26T19:32:09.604Z,1.30
2019-03-26T19:37:13.835Z,1.20
2019-03-26T19:42:18.307Z,1.20
2019-03-26T19:57:30.556Z,1.10
2019-03-26T20:02:34.707Z,1.00
2019-03-26T20:07:39.103Z,1.10
2019-03-26T20:12:45.047Z,1.00
2019-03-26T20:17:50.138Z,0.90
2019-03-26T20:22:54.257Z,0.90
2019-03-26T20:33:02.898Z,0.90
2019-03-26T20:38:07.323Z,0.90
2019-03-26T20:48:17.176Z,0.80
2019-03-26T20:53:27.693Z,0.80
2019-03-26T20:58:32.260Z,2.40
2019-03-26T21:03:36.502Z,0.70
2019-03-26T21:08:41.025Z,0.70
2019-03-26T21:13:50.878Z,0.70
2019-03-26T21:18:51.970Z,0.70
2019-03-26T21:23:56.071Z,0.80
2019-03-26T21:29:00.200Z,0.80
2019-03-26T21:34:04.549Z,0.80
2019-03-26T21:39:09.033Z,0.60
2019-03-26T21:44:15.773Z,0.60
2019-03-26T21:49:20.744Z,0.70
2019-03-26T21:54:25.123Z,0.60
2019-03-26T21:59:29.526Z,0.60
2019-03-26T22:04:34.212Z,0.60
2019-03-26T22:09:38.387Z,0.50
2019-03-26T22:14:42.512Z,0.40
2019-03-26T22:19:46.650Z,0.40
2019-03-26T22:24:50.798Z,0.40
2019-03-26T22:29:55.063Z,0.30
2019-03-26T22:40:07.336Z,0.10
2019-03-26T22:45:13.422Z,0.10
2019-03-26T22:50:18.264Z,0.10
2019-03-26T22:55:22.400Z,0.00
2019-03-26T23:00:29.033Z,0.00
2019-03-26T23:05:53.090Z,0.00
2019-03-26T23:11:10.175Z,1.40
2019-03-26T23:16:15.073Z,0.40
2019-03-26T23:21:20.123Z,-0.20
2019-03-26T23:26:24.837Z,-0.30
2019-03-26T23:31:29.332Z,-0.40
2019-03-26T23:36:33.669Z,-0.40
2019-03-26T23:41:39.787Z,-0.50
2019-03-26T23:46:43.990Z,-0.50
2019-03-26T23:51:48.455Z,-0.60
2019-03-26T23:56:52.887Z,-0.70
